sensor_id;sensor_type;location;lat;lon;timestamp;P1;durP1;ratioP1;P2;durP2;ratioP2
33266;SDS011;19638;49.080;11.896;2022-07-24T00:01:43;22.58;;;10.65;;
33266;SDS011;19638;49.080;11.896;2022-07-24T00:05:46;13.43;;;10.48;;
33266;SDS011;19638;49.080;11.896;2022-07-24T00:09:49;12.23;;;9.88;;
33266;SDS011;19638;49.080;11.896;2022-07-24T00:13:53;18.13;;;9.93;;
33266;SDS011;19638;49.080;11.896;2022-07-24T00:17:57;17.60;;;11.45;;
33266;SDS011;19638;49.080;11.896;2022-07-24T00:22:00;14.25;;;10.05;;
33266;SDS011;19638;49.080;11.896;2022-07-24T00:26:04;14.23;;;10.23;;
33266;SDS011;19638;49.080;11.896;2022-07-24T00:30:08;12.95;;;10.02;;
33266;SDS011;19638;49.080;11.896;2022-07-24T00:34:13;13.90;;;10.85;;
33266;SDS011;19638;49.080;11.896;2022-07-24T00:38:17;12.70;;;10.57;;
33266;SDS011;19638;49.080;11.896;2022-07-24T00:42:20;14.52;;;10.40;;
33266;SDS011;19638;49.080;11.896;2022-07-24T00:46:23;13.85;;;10.10;;
33266;SDS011;19638;49.080;11.896;2022-07-24T00:50:28;19.52;;;11.30;;
33266;SDS011;19638;49.080;11.896;2022-07-24T00:54:31;17.10;;;11.73;;
33266;SDS011;19638;49.080;11.896;2022-07-24T00:58:35;14.75;;;10.98;;
33266;SDS011;19638;49.080;11.896;2022-07-24T01:02:38;12.88;;;10.00;;
33266;SDS011;19638;49.080;11.896;2022-07-24T01:06:43;13.23;;;10.65;;
33266;SDS011;19638;49.080;11.896;2022-07-24T01:10:47;13.82;;;10.65;;
33266;SDS011;19638;49.080;11.896;2022-07-24T01:14:50;15.00;;;10.50;;
33266;SDS011;19638;49.080;11.896;2022-07-24T01:18:54;12.13;;;9.95;;
33266;SDS011;19638;49.080;11.896;2022-07-24T01:22:58;12.65;;;9.70;;
33266;SDS011;19638;49.080;11.896;2022-07-24T01:27:01;12.75;;;10.45;;
33266;SDS011;19638;49.080;11.896;2022-07-24T01:31:05;15.68;;;10.13;;
33266;SDS011;19638;49.080;11.896;2022-07-24T01:35:08;17.17;;;12.18;;
33266;SDS011;19638;49.080;11.896;2022-07-24T01:39:24;14.65;;;11.15;;
33266;SDS011;19638;49.080;11.896;2022-07-24T01:43:28;13.48;;;10.63;;
33266;SDS011;19638;49.080;11.896;2022-07-24T01:47:31;13.38;;;10.10;;
33266;SDS011;19638;49.080;11.896;2022-07-24T01:51:34;14.45;;;10.73;;
33266;SDS011;19638;49.080;11.896;2022-07-24T01:55:39;16.88;;;11.02;;
33266;SDS011;19638;49.080;11.896;2022-07-24T01:59:42;15.02;;;11.50;;
33266;SDS011;19638;49.080;11.896;2022-07-24T02:03:48;16.73;;;11.43;;
33266;SDS011;19638;49.080;11.896;2022-07-24T02:07:54;15.20;;;11.05;;
33266;SDS011;19638;49.080;11.896;2022-07-24T02:12:00;14.18;;;10.73;;
33266;SDS011;19638;49.080;11.896;2022-07-24T02:16:04;14.15;;;10.60;;
33266;SDS011;19638;49.080;11.896;2022-07-24T02:20:08;15.35;;;11.93;;
33266;SDS011;19638;49.080;11.896;2022-07-24T02:24:12;15.35;;;11.27;;
33266;SDS011;19638;49.080;11.896;2022-07-24T02:28:17;16.58;;;11.10;;
33266;SDS011;19638;49.080;11.896;2022-07-24T02:32:21;19.60;;;11.20;;
33266;SDS011;19638;49.080;11.896;2022-07-24T02:36:24;12.85;;;10.90;;
33266;SDS011;19638;49.080;11.896;2022-07-24T02:40:27;14.60;;;11.20;;
33266;SDS011;19638;49.080;11.896;2022-07-24T02:44:32;14.07;;;10.90;;
33266;SDS011;19638;49.080;11.896;2022-07-24T02:48:35;14.98;;;11.50;;
33266;SDS011;19638;49.080;11.896;2022-07-24T02:52:39;13.80;;;10.68;;
33266;SDS011;19638;49.080;11.896;2022-07-24T02:56:42;16.50;;;11.20;;
33266;SDS011;19638;49.080;11.896;2022-07-24T03:00:47;13.45;;;10.23;;
33266;SDS011;19638;49.080;11.896;2022-07-24T03:05:09;15.45;;;11.18;;
33266;SDS011;19638;49.080;11.896;2022-07-24T03:09:12;14.52;;;10.20;;
33266;SDS011;19638;49.080;11.896;2022-07-24T03:13:15;16.92;;;12.07;;
33266;SDS011;19638;49.080;11.896;2022-07-24T03:17:20;17.58;;;11.85;;
33266;SDS011;19638;49.080;11.896;2022-07-24T03:21:23;15.73;;;10.63;;
33266;SDS011;19638;49.080;11.896;2022-07-24T03:25:47;14.20;;;11.15;;
33266;SDS011;19638;49.080;11.896;2022-07-24T03:29:50;14.40;;;11.88;;
33266;SDS011;19638;49.080;11.896;2022-07-24T03:33:55;16.02;;;12.05;;
33266;SDS011;19638;49.080;11.896;2022-07-24T03:37:58;16.02;;;12.25;;
33266;SDS011;19638;49.080;11.896;2022-07-24T03:42:02;19.35;;;11.20;;
33266;SDS011;19638;49.080;11.896;2022-07-24T03:46:05;18.65;;;11.85;;
33266;SDS011;19638;49.080;11.896;2022-07-24T03:50:10;17.08;;;11.93;;
33266;SDS011;19638;49.080;11.896;2022-07-24T03:54:17;14.90;;;11.10;;
33266;SDS011;19638;49.080;11.896;2022-07-24T03:58:20;18.73;;;12.18;;
33266;SDS011;19638;49.080;11.896;2022-07-24T04:02:23;17.85;;;11.57;;
33266;SDS011;19638;49.080;11.896;2022-07-24T04:06:28;18.83;;;12.15;;
33266;SDS011;19638;49.080;11.896;2022-07-24T04:10:31;20.65;;;12.38;;
33266;SDS011;19638;49.080;11.896;2022-07-24T04:14:34;17.88;;;11.88;;
33266;SDS011;19638;49.080;11.896;2022-07-24T04:18:37;22.58;;;12.73;;
33266;SDS011;19638;49.080;11.896;2022-07-24T04:22:42;15.32;;;11.95;;
33266;SDS011;19638;49.080;11.896;2022-07-24T04:26:47;15.50;;;12.07;;
33266;SDS011;19638;49.080;11.896;2022-07-24T04:30:50;15.30;;;11.80;;
33266;SDS011;19638;49.080;11.896;2022-07-24T04:34:53;15.48;;;11.90;;
33266;SDS011;19638;49.080;11.896;2022-07-24T04:39:03;16.45;;;12.25;;
33266;SDS011;19638;49.080;11.896;2022-07-24T04:43:08;18.52;;;11.95;;
33266;SDS011;19638;49.080;11.896;2022-07-24T04:47:12;18.05;;;12.77;;
33266;SDS011;19638;49.080;11.896;2022-07-24T04:51:15;14.52;;;11.15;;
33266;SDS011;19638;49.080;11.896;2022-07-24T04:55:20;15.18;;;12.25;;
33266;SDS011;19638;49.080;11.896;2022-07-24T04:59:23;13.35;;;11.25;;
33266;SDS011;19638;49.080;11.896;2022-07-24T05:03:26;15.70;;;12.25;;
33266;SDS011;19638;49.080;11.896;2022-07-24T05:07:30;16.23;;;12.45;;
33266;SDS011;19638;49.080;11.896;2022-07-24T05:11:34;17.38;;;12.32;;
33266;SDS011;19638;49.080;11.896;2022-07-24T05:15:37;17.00;;;12.45;;
33266;SDS011;19638;49.080;11.896;2022-07-24T05:19:41;17.60;;;12.30;;
33266;SDS011;19638;49.080;11.896;2022-07-24T05:23:44;17.55;;;12.10;;
33266;SDS011;19638;49.080;11.896;2022-07-24T05:27:49;16.38;;;11.82;;
33266;SDS011;19638;49.080;11.896;2022-07-24T05:31:52;15.85;;;12.27;;
33266;SDS011;19638;49.080;11.896;2022-07-24T05:35:56;19.65;;;12.45;;
33266;SDS011;19638;49.080;11.896;2022-07-24T05:39:59;13.75;;;11.38;;
33266;SDS011;19638;49.080;11.896;2022-07-24T05:44:07;13.45;;;11.70;;
33266;SDS011;19638;49.080;11.896;2022-07-24T05:48:11;17.05;;;13.00;;
33266;SDS011;19638;49.080;11.896;2022-07-24T05:52:14;15.88;;;12.48;;
33266;SDS011;19638;49.080;11.896;2022-07-24T05:56:18;15.13;;;12.43;;
33266;SDS011;19638;49.080;11.896;2022-07-24T06:00:23;13.98;;;11.70;;
33266;SDS011;19638;49.080;11.896;2022-07-24T06:04:28;14.05;;;11.45;;
33266;SDS011;19638;49.080;11.896;2022-07-24T06:08:31;13.55;;;11.40;;
33266;SDS011;19638;49.080;11.896;2022-07-24T06:12:35;14.82;;;11.30;;
33266;SDS011;19638;49.080;11.896;2022-07-24T06:16:45;13.93;;;10.70;;
33266;SDS011;19638;49.080;11.896;2022-07-24T06:20:49;11.98;;;10.68;;
33266;SDS011;19638;49.080;11.896;2022-07-24T06:24:52;12.88;;;11.30;;
33266;SDS011;19638;49.080;11.896;2022-07-24T06:28:56;15.48;;;11.55;;
33266;SDS011;19638;49.080;11.896;2022-07-24T06:33:01;12.25;;;10.30;;
33266;SDS011;19638;49.080;11.896;2022-07-24T06:37:04;14.13;;;11.57;;
33266;SDS011;19638;49.080;11.896;2022-07-24T06:41:07;13.95;;;10.27;;
33266;SDS011;19638;49.080;11.896;2022-07-24T06:45:11;13.00;;;9.80;;
33266;SDS011;19638;49.080;11.896;2022-07-24T06:49:15;11.40;;;8.90;;
33266;SDS011;19638;49.080;11.896;2022-07-24T06:53:19;9.80;;;8.80;;
33266;SDS011;19638;49.080;11.896;2022-07-24T06:57:23;11.00;;;7.43;;
33266;SDS011;19638;49.080;11.896;2022-07-24T07:01:27;10.00;;;8.27;;
33266;SDS011;19638;49.080;11.896;2022-07-24T07:05:31;9.77;;;8.77;;
33266;SDS011;19638;49.080;11.896;2022-07-24T07:09:34;10.30;;;8.05;;
33266;SDS011;19638;49.080;11.896;2022-07-24T07:13:38;11.88;;;8.20;;
33266;SDS011;19638;49.080;11.896;2022-07-24T07:17:41;9.10;;;8.20;;
33266;SDS011;19638;49.080;11.896;2022-07-24T07:21:46;9.13;;;7.88;;
33266;SDS011;19638;49.080;11.896;2022-07-24T07:25:49;11.80;;;8.57;;
33266;SDS011;19638;49.080;11.896;2022-07-24T07:29:52;10.68;;;8.10;;
33266;SDS011;19638;49.080;11.896;2022-07-24T07:33:56;11.07;;;8.18;;
33266;SDS011;19638;49.080;11.896;2022-07-24T07:38:00;9.95;;;8.15;;
33266;SDS011;19638;49.080;11.896;2022-07-24T07:42:04;13.20;;;7.38;;
33266;SDS011;19638;49.080;11.896;2022-07-24T07:46:07;9.23;;;8.32;;
33266;SDS011;19638;49.080;11.896;2022-07-24T07:50:11;8.52;;;7.63;;
33266;SDS011;19638;49.080;11.896;2022-07-24T07:54:16;9.25;;;8.30;;
33266;SDS011;19638;49.080;11.896;2022-07-24T07:58:19;9.68;;;7.53;;
33266;SDS011;19638;49.080;11.896;2022-07-24T08:02:23;9.93;;;7.53;;
33266;SDS011;19638;49.080;11.896;2022-07-24T08:06:27;8.32;;;7.10;;
33266;SDS011;19638;49.080;11.896;2022-07-24T08:10:32;9.77;;;7.28;;
33266;SDS011;19638;49.080;11.896;2022-07-24T08:14:35;8.20;;;7.38;;
33266;SDS011;19638;49.080;11.896;2022-07-24T08:18:38;8.27;;;7.55;;
33266;SDS011;19638;49.080;11.896;2022-07-24T08:22:42;8.27;;;7.47;;
33266;SDS011;19638;49.080;11.896;2022-07-24T08:26:47;8.20;;;7.13;;
33266;SDS011;19638;49.080;11.896;2022-07-24T08:30:50;7.72;;;7.03;;
33266;SDS011;19638;49.080;11.896;2022-07-24T08:34:55;7.07;;;6.47;;
33266;SDS011;19638;49.080;11.896;2022-07-24T08:38:58;7.60;;;6.63;;
33266;SDS011;19638;49.080;11.896;2022-07-24T08:43:04;12.27;;;10.30;;
33266;SDS011;19638;49.080;11.896;2022-07-24T08:47:08;8.65;;;6.82;;
33266;SDS011;19638;49.080;11.896;2022-07-24T08:51:12;23.83;;;15.35;;
33266;SDS011;19638;49.080;11.896;2022-07-24T08:55:16;15.38;;;7.07;;
33266;SDS011;19638;49.080;11.896;2022-07-24T08:59:21;7.55;;;6.80;;
33266;SDS011;19638;49.080;11.896;2022-07-24T09:03:27;8.27;;;6.50;;
33266;SDS011;19638;49.080;11.896;2022-07-24T09:07:30;20.88;;;8.45;;
33266;SDS011;19638;49.080;11.896;2022-07-24T09:11:35;6.68;;;6.07;;
33266;SDS011;19638;49.080;11.896;2022-07-24T09:15:43;9.20;;;7.18;;
33266;SDS011;19638;49.080;11.896;2022-07-24T09:19:49;7.25;;;6.15;;
33266;SDS011;19638;49.080;11.896;2022-07-24T09:23:54;7.05;;;6.35;;
33266;SDS011;19638;49.080;11.896;2022-07-24T09:28:03;6.95;;;6.25;;
33266;SDS011;19638;49.080;11.896;2022-07-24T09:32:11;6.80;;;6.05;;
33266;SDS011;19638;49.080;11.896;2022-07-24T09:36:15;7.70;;;6.05;;
33266;SDS011;19638;49.080;11.896;2022-07-24T09:40:20;6.53;;;5.85;;
33266;SDS011;19638;49.080;11.896;2022-07-24T09:44:23;6.32;;;5.80;;
33266;SDS011;19638;49.080;11.896;2022-07-24T09:48:29;7.50;;;6.07;;
33266;SDS011;19638;49.080;11.896;2022-07-24T09:52:34;7.25;;;6.57;;
33266;SDS011;19638;49.080;11.896;2022-07-24T09:56:38;6.57;;;5.88;;
33266;SDS011;19638;49.080;11.896;2022-07-24T10:00:42;6.47;;;5.70;;
33266;SDS011;19638;49.080;11.896;2022-07-24T10:04:48;7.28;;;6.25;;
33266;SDS011;19638;49.080;11.896;2022-07-24T10:08:52;10.00;;;5.75;;
33266;SDS011;19638;49.080;11.896;2022-07-24T10:12:56;6.35;;;5.85;;
33266;SDS011;19638;49.080;11.896;2022-07-24T10:17:03;7.03;;;6.32;;
33266;SDS011;19638;49.080;11.896;2022-07-24T10:21:27;6.85;;;6.25;;
33266;SDS011;19638;49.080;11.896;2022-07-24T10:25:34;9.73;;;6.88;;
33266;SDS011;19638;49.080;11.896;2022-07-24T10:29:50;13.95;;;12.52;;
33266;SDS011;19638;49.080;11.896;2022-07-24T10:33:55;6.25;;;5.75;;
33266;SDS011;19638;49.080;11.896;2022-07-24T10:38:04;6.18;;;5.68;;
33266;SDS011;19638;49.080;11.896;2022-07-24T10:42:15;7.05;;;6.35;;
33266;SDS011;19638;49.080;11.896;2022-07-24T10:46:18;7.65;;;5.95;;
33266;SDS011;19638;49.080;11.896;2022-07-24T10:50:22;9.50;;;7.65;;
33266;SDS011;19638;49.080;11.896;2022-07-24T10:54:27;14.43;;;12.43;;
33266;SDS011;19638;49.080;11.896;2022-07-24T10:58:31;6.75;;;6.05;;
33266;SDS011;19638;49.080;11.896;2022-07-24T11:02:55;6.38;;;5.75;;
33266;SDS011;19638;49.080;11.896;2022-07-24T11:07:02;5.93;;;5.43;;
33266;SDS011;19638;49.080;11.896;2022-07-24T11:11:15;7.40;;;5.82;;
33266;SDS011;19638;49.080;11.896;2022-07-24T11:15:20;6.88;;;5.93;;
33266;SDS011;19638;49.080;11.896;2022-07-24T11:19:40;8.07;;;5.63;;
33266;SDS011;19638;49.080;11.896;2022-07-24T11:28:21;6.45;;;5.85;;
33266;SDS011;19638;49.080;11.896;2022-07-24T11:32:24;6.75;;;5.93;;
33266;SDS011;19638;49.080;11.896;2022-07-24T11:36:31;7.68;;;6.45;;
33266;SDS011;19638;49.080;11.896;2022-07-24T11:40:36;6.80;;;6.20;;
33266;SDS011;19638;49.080;11.896;2022-07-24T11:44:42;11.73;;;6.78;;
33266;SDS011;19638;49.080;11.896;2022-07-24T11:48:46;7.40;;;6.70;;
33266;SDS011;19638;49.080;11.896;2022-07-24T11:53:05;8.30;;;5.88;;
33266;SDS011;19638;49.080;11.896;2022-07-24T11:57:15;6.38;;;5.53;;
33266;SDS011;19638;49.080;11.896;2022-07-24T12:01:44;8.75;;;6.18;;
33266;SDS011;19638;49.080;11.896;2022-07-24T12:05:48;5.93;;;5.43;;
33266;SDS011;19638;49.080;11.896;2022-07-24T12:09:52;8.73;;;5.93;;
33266;SDS011;19638;49.080;11.896;2022-07-24T12:13:58;6.50;;;5.65;;
33266;SDS011;19638;49.080;11.896;2022-07-24T12:18:12;8.40;;;6.07;;
33266;SDS011;19638;49.080;11.896;2022-07-24T12:22:16;6.47;;;5.32;;
33266;SDS011;19638;49.080;11.896;2022-07-24T12:26:20;6.13;;;5.60;;
33266;SDS011;19638;49.080;11.896;2022-07-24T12:30:26;5.95;;;5.30;;
33266;SDS011;19638;49.080;11.896;2022-07-24T12:34:40;8.05;;;5.60;;
33266;SDS011;19638;49.080;11.896;2022-07-24T12:39:04;7.30;;;5.45;;
33266;SDS011;19638;49.080;11.896;2022-07-24T12:43:08;6.07;;;5.57;;
33266;SDS011;19638;49.080;11.896;2022-07-24T12:47:14;7.45;;;5.80;;
33266;SDS011;19638;49.080;11.896;2022-07-24T12:51:18;5.68;;;5.18;;
33266;SDS011;19638;49.080;11.896;2022-07-24T12:55:22;7.88;;;5.85;;
33266;SDS011;19638;49.080;11.896;2022-07-24T12:59:26;6.20;;;5.35;;
33266;SDS011;19638;49.080;11.896;2022-07-24T13:03:31;6.05;;;5.55;;
33266;SDS011;19638;49.080;11.896;2022-07-24T13:07:38;5.60;;;5.10;;
33266;SDS011;19638;49.080;11.896;2022-07-24T13:11:42;6.57;;;5.40;;
33266;SDS011;19638;49.080;11.896;2022-07-24T13:15:46;5.43;;;4.93;;
33266;SDS011;19638;49.080;11.896;2022-07-24T13:19:50;6.00;;;5.50;;
33266;SDS011;19638;49.080;11.896;2022-07-24T13:23:55;5.70;;;5.20;;
33266;SDS011;19638;49.080;11.896;2022-07-24T13:27:58;8.18;;;5.40;;
33266;SDS011;19638;49.080;11.896;2022-07-24T13:32:14;5.75;;;5.28;;
33266;SDS011;19638;49.080;11.896;2022-07-24T13:36:23;6.05;;;5.43;;
33266;SDS011;19638;49.080;11.896;2022-07-24T13:40:30;5.88;;;5.35;;
33266;SDS011;19638;49.080;11.896;2022-07-24T13:44:33;5.50;;;5.03;;
33266;SDS011;19638;49.080;11.896;2022-07-24T13:48:37;6.00;;;5.40;;
33266;SDS011;19638;49.080;11.896;2022-07-24T13:52:41;5.28;;;4.82;;
33266;SDS011;19638;49.080;11.896;2022-07-24T13:56:45;5.88;;;5.38;;
33266;SDS011;19638;49.080;11.896;2022-07-24T14:00:49;5.32;;;4.82;;
33266;SDS011;19638;49.080;11.896;2022-07-24T14:04:57;6.25;;;5.75;;
33266;SDS011;19638;49.080;11.896;2022-07-24T14:09:01;7.25;;;5.55;;
33266;SDS011;19638;49.080;11.896;2022-07-24T14:13:06;6.38;;;5.78;;
33266;SDS011;19638;49.080;11.896;2022-07-24T14:17:09;5.95;;;5.45;;
33266;SDS011;19638;49.080;11.896;2022-07-24T14:21:13;5.97;;;5.38;;
33266;SDS011;19638;49.080;11.896;2022-07-24T14:25:16;5.57;;;5.07;;
33266;SDS011;19638;49.080;11.896;2022-07-24T14:29:20;8.02;;;5.68;;
33266;SDS011;19638;49.080;11.896;2022-07-24T14:33:24;10.32;;;5.47;;
33266;SDS011;19638;49.080;11.896;2022-07-24T14:37:27;6.07;;;5.45;;
33266;SDS011;19638;49.080;11.896;2022-07-24T14:41:30;5.50;;;5.00;;
33266;SDS011;19638;49.080;11.896;2022-07-24T14:45:35;5.70;;;5.18;;
33266;SDS011;19638;49.080;11.896;2022-07-24T14:49:39;7.07;;;5.63;;
33266;SDS011;19638;49.080;11.896;2022-07-24T14:53:42;5.90;;;5.40;;
33266;SDS011;19638;49.080;11.896;2022-07-24T14:57:45;5.68;;;5.18;;
33266;SDS011;19638;49.080;11.896;2022-07-24T15:01:50;5.57;;;5.07;;
33266;SDS011;19638;49.080;11.896;2022-07-24T15:05:53;5.75;;;5.35;;
33266;SDS011;19638;49.080;11.896;2022-07-24T15:09:57;5.38;;;4.88;;
33266;SDS011;19638;49.080;11.896;2022-07-24T15:14:00;5.70;;;5.20;;
33266;SDS011;19638;49.080;11.896;2022-07-24T15:18:05;6.88;;;5.50;;
33266;SDS011;19638;49.080;11.896;2022-07-24T15:22:08;5.72;;;5.22;;
33266;SDS011;19638;49.080;11.896;2022-07-24T15:26:11;7.25;;;5.15;;
33266;SDS011;19638;49.080;11.896;2022-07-24T15:30:16;6.75;;;5.53;;
33266;SDS011;19638;49.080;11.896;2022-07-24T15:34:29;5.75;;;5.25;;
33266;SDS011;19638;49.080;11.896;2022-07-24T15:38:32;6.07;;;5.45;;
33266;SDS011;19638;49.080;11.896;2022-07-24T15:42:35;6.30;;;5.40;;
33266;SDS011;19638;49.080;11.896;2022-07-24T15:46:39;6.95;;;5.55;;
33266;SDS011;19638;49.080;11.896;2022-07-24T15:50:52;6.55;;;5.70;;
33266;SDS011;19638;49.080;11.896;2022-07-24T15:54:55;6.20;;;5.70;;
33266;SDS011;19638;49.080;11.896;2022-07-24T15:58:58;6.30;;;5.65;;
33266;SDS011;19638;49.080;11.896;2022-07-24T16:03:02;8.73;;;6.18;;
33266;SDS011;19638;49.080;11.896;2022-07-24T16:07:07;5.72;;;5.20;;
33266;SDS011;19638;49.080;11.896;2022-07-24T16:11:10;6.70;;;5.55;;
33266;SDS011;19638;49.080;11.896;2022-07-24T16:15:13;5.75;;;5.35;;
33266;SDS011;19638;49.080;11.896;2022-07-24T16:19:17;6.88;;;5.20;;
33266;SDS011;19638;49.080;11.896;2022-07-24T16:23:22;6.60;;;5.30;;
33266;SDS011;19638;49.080;11.896;2022-07-24T16:27:25;6.53;;;5.75;;
33266;SDS011;19638;49.080;11.896;2022-07-24T16:31:29;6.38;;;5.40;;
33266;SDS011;19638;49.080;11.896;2022-07-24T16:35:32;8.40;;;5.50;;
33266;SDS011;19638;49.080;11.896;2022-07-24T16:39:37;8.18;;;5.57;;
33266;SDS011;19638;49.080;11.896;2022-07-24T16:43:43;10.02;;;5.57;;
33266;SDS011;19638;49.080;11.896;2022-07-24T16:47:46;6.18;;;5.57;;
33266;SDS011;19638;49.080;11.896;2022-07-24T16:51:49;6.28;;;5.68;;
33266;SDS011;19638;49.080;11.896;2022-07-24T16:55:54;5.78;;;5.35;;
33266;SDS011;19638;49.080;11.896;2022-07-24T16:59:58;6.18;;;5.25;;
33266;SDS011;19638;49.080;11.896;2022-07-24T17:04:01;7.18;;;5.35;;
33266;SDS011;19638;49.080;11.896;2022-07-24T17:08:05;5.35;;;4.95;;
33266;SDS011;19638;49.080;11.896;2022-07-24T17:12:10;6.20;;;5.72;;
33266;SDS011;19638;49.080;11.896;2022-07-24T17:16:13;6.10;;;5.60;;
33266;SDS011;19638;49.080;11.896;2022-07-24T17:20:17;6.95;;;5.80;;
33266;SDS011;19638;49.080;11.896;2022-07-24T17:24:21;5.60;;;5.20;;
33266;SDS011;19638;49.080;11.896;2022-07-24T17:28:25;5.60;;;5.10;;
33266;SDS011;19638;49.080;11.896;2022-07-24T17:32:29;5.95;;;5.35;;
33266;SDS011;19638;49.080;11.896;2022-07-24T17:36:32;5.88;;;5.38;;
33266;SDS011;19638;49.080;11.896;2022-07-24T17:40:36;6.22;;;5.63;;
33266;SDS011;19638;49.080;11.896;2022-07-24T17:44:41;6.55;;;5.68;;
33266;SDS011;19638;49.080;11.896;2022-07-24T17:48:44;5.80;;;5.20;;
33266;SDS011;19638;49.080;11.896;2022-07-24T17:52:47;6.93;;;5.22;;
33266;SDS011;19638;49.080;11.896;2022-07-24T17:56:52;6.57;;;5.85;;
33266;SDS011;19638;49.080;11.896;2022-07-24T18:00:56;6.82;;;5.53;;
33266;SDS011;19638;49.080;11.896;2022-07-24T18:05:00;6.13;;;5.53;;
33266;SDS011;19638;49.080;11.896;2022-07-24T18:09:03;8.30;;;6.43;;
33266;SDS011;19638;49.080;11.896;2022-07-24T18:13:06;7.18;;;5.63;;
33266;SDS011;19638;49.080;11.896;2022-07-24T18:17:11;96.80;;;13.75;;
33266;SDS011;19638;49.080;11.896;2022-07-24T18:21:14;9.93;;;6.53;;
33266;SDS011;19638;49.080;11.896;2022-07-24T18:25:18;6.72;;;5.90;;
33266;SDS011;19638;49.080;11.896;2022-07-24T18:29:26;10.80;;;6.68;;
33266;SDS011;19638;49.080;11.896;2022-07-24T18:33:32;16.20;;;6.85;;
33266;SDS011;19638;49.080;11.896;2022-07-24T18:37:35;35.03;;;7.50;;
33266;SDS011;19638;49.080;11.896;2022-07-24T18:41:38;14.32;;;6.78;;
33266;SDS011;19638;49.080;11.896;2022-07-24T18:45:41;14.27;;;6.82;;
33266;SDS011;19638;49.080;11.896;2022-07-24T18:49:47;55.78;;;9.90;;
33266;SDS011;19638;49.080;11.896;2022-07-24T18:53:50;101.53;;;12.90;;
33266;SDS011;19638;49.080;11.896;2022-07-24T18:57:56;48.88;;;9.70;;
33266;SDS011;19638;49.080;11.896;2022-07-24T19:02:00;16.73;;;7.72;;
33266;SDS011;19638;49.080;11.896;2022-07-24T19:06:05;34.78;;;8.75;;
33266;SDS011;19638;49.080;11.896;2022-07-24T19:10:09;38.35;;;10.13;;
33266;SDS011;19638;49.080;11.896;2022-07-24T19:14:13;55.65;;;11.18;;
33266;SDS011;19638;49.080;11.896;2022-07-24T19:18:16;118.95;;;15.20;;
33266;SDS011;19638;49.080;11.896;2022-07-24T19:22:21;100.15;;;13.05;;
33266;SDS011;19638;49.080;11.896;2022-07-24T19:26:24;189.55;;;21.83;;
33266;SDS011;19638;49.080;11.896;2022-07-24T19:30:27;42.30;;;10.75;;
33266;SDS011;19638;49.080;11.896;2022-07-24T19:34:36;51.60;;;10.60;;
33266;SDS011;19638;49.080;11.896;2022-07-24T19:38:40;23.27;;;7.93;;
33266;SDS011;19638;49.080;11.896;2022-07-24T19:42:43;21.38;;;7.40;;
33266;SDS011;19638;49.080;11.896;2022-07-24T19:46:47;15.50;;;7.07;;
33266;SDS011;19638;49.080;11.896;2022-07-24T19:50:51;9.27;;;7.03;;
33266;SDS011;19638;49.080;11.896;2022-07-24T19:55:16;10.05;;;7.35;;
33266;SDS011;19638;49.080;11.896;2022-07-24T19:59:19;10.90;;;7.15;;
33266;SDS011;19638;49.080;11.896;2022-07-24T20:03:22;7.00;;;6.20;;
33266;SDS011;19638;49.080;11.896;2022-07-24T20:07:25;9.70;;;6.82;;
33266;SDS011;19638;49.080;11.896;2022-07-24T20:11:32;7.05;;;6.35;;
33266;SDS011;19638;49.080;11.896;2022-07-24T20:15:35;8.50;;;6.57;;
33266;SDS011;19638;49.080;11.896;2022-07-24T20:19:42;7.13;;;6.38;;
33266;SDS011;19638;49.080;11.896;2022-07-24T20:23:45;8.60;;;7.00;;
33266;SDS011;19638;49.080;11.896;2022-07-24T20:27:50;9.30;;;6.95;;
33266;SDS011;19638;49.080;11.896;2022-07-24T20:31:53;7.95;;;6.85;;
33266;SDS011;19638;49.080;11.896;2022-07-24T20:35:56;11.25;;;6.78;;
33266;SDS011;19638;49.080;11.896;2022-07-24T20:40:00;7.40;;;6.68;;
33266;SDS011;19638;49.080;11.896;2022-07-24T20:44:05;8.48;;;6.50;;
33266;SDS011;19638;49.080;11.896;2022-07-24T20:48:09;8.63;;;6.55;;
33266;SDS011;19638;49.080;11.896;2022-07-24T20:52:12;6.85;;;6.00;;
33266;SDS011;19638;49.080;11.896;2022-07-24T20:56:17;8.68;;;7.05;;
33266;SDS011;19638;49.080;11.896;2022-07-24T21:00:23;8.05;;;6.88;;
33266;SDS011;19638;49.080;11.896;2022-07-24T21:04:27;11.25;;;7.45;;
33266;SDS011;19638;49.080;11.896;2022-07-24T21:08:31;11.77;;;7.00;;
33266;SDS011;19638;49.080;11.896;2022-07-24T21:12:54;10.23;;;6.80;;
33266;SDS011;19638;49.080;11.896;2022-07-24T21:16:58;9.75;;;6.20;;
33266;SDS011;19638;49.080;11.896;2022-07-24T21:21:02;9.35;;;7.25;;
33266;SDS011;19638;49.080;11.896;2022-07-24T21:25:06;9.98;;;7.40;;
33266;SDS011;19638;49.080;11.896;2022-07-24T21:29:09;7.35;;;6.43;;
33266;SDS011;19638;49.080;11.896;2022-07-24T21:33:14;8.13;;;7.28;;
33266;SDS011;19638;49.080;11.896;2022-07-24T21:37:17;8.18;;;7.03;;
33266;SDS011;19638;49.080;11.896;2022-07-24T21:41:20;7.85;;;6.80;;
33266;SDS011;19638;49.080;11.896;2022-07-24T21:45:24;9.25;;;7.10;;
33266;SDS011;19638;49.080;11.896;2022-07-24T21:49:28;9.82;;;7.55;;
33266;SDS011;19638;49.080;11.896;2022-07-24T21:53:32;8.25;;;7.45;;
33266;SDS011;19638;49.080;11.896;2022-07-24T21:57:35;9.30;;;7.65;;
33266;SDS011;19638;49.080;11.896;2022-07-24T22:01:39;8.73;;;7.25;;
33266;SDS011;19638;49.080;11.896;2022-07-24T22:05:43;9.75;;;6.82;;
33266;SDS011;19638;49.080;11.896;2022-07-24T22:09:46;8.57;;;7.30;;
33266;SDS011;19638;49.080;11.896;2022-07-24T22:13:50;10.18;;;7.70;;
33266;SDS011;19638;49.080;11.896;2022-07-24T22:18:01;11.52;;;7.60;;
33266;SDS011;19638;49.080;11.896;2022-07-24T22:22:07;10.25;;;7.78;;
33266;SDS011;19638;49.080;11.896;2022-07-24T22:26:10;10.52;;;7.93;;
33266;SDS011;19638;49.080;11.896;2022-07-24T22:30:13;8.85;;;7.45;;
33266;SDS011;19638;49.080;11.896;2022-07-24T22:34:16;9.70;;;7.78;;
33266;SDS011;19638;49.080;11.896;2022-07-24T22:38:21;10.20;;;7.80;;
33266;SDS011;19638;49.080;11.896;2022-07-24T22:42:26;10.25;;;8.18;;
33266;SDS011;19638;49.080;11.896;2022-07-24T22:46:32;10.20;;;8.10;;
33266;SDS011;19638;49.080;11.896;2022-07-24T22:50:36;10.70;;;8.57;;
33266;SDS011;19638;49.080;11.896;2022-07-24T22:54:43;9.68;;;7.88;;
33266;SDS011;19638;49.080;11.896;2022-07-24T22:58:47;11.50;;;8.52;;
33266;SDS011;19638;49.080;11.896;2022-07-24T23:02:51;11.18;;;8.43;;
33266;SDS011;19638;49.080;11.896;2022-07-24T23:06:54;11.27;;;8.82;;
33266;SDS011;19638;49.080;11.896;2022-07-24T23:10:59;9.02;;;8.00;;
33266;SDS011;19638;49.080;11.896;2022-07-24T23:15:02;9.15;;;8.00;;
33266;SDS011;19638;49.080;11.896;2022-07-24T23:19:06;12.48;;;9.45;;
33266;SDS011;19638;49.080;11.896;2022-07-24T23:23:09;10.73;;;8.75;;
33266;SDS011;19638;49.080;11.896;2022-07-24T23:27:13;10.48;;;7.80;;
33266;SDS011;19638;49.080;11.896;2022-07-24T23:31:17;10.88;;;8.88;;
33266;SDS011;19638;49.080;11.896;2022-07-24T23:35:20;11.55;;;8.90;;
33266;SDS011;19638;49.080;11.896;2022-07-24T23:39:23;13.77;;;9.60;;
33266;SDS011;19638;49.080;11.896;2022-07-24T23:43:28;9.82;;;8.70;;
33266;SDS011;19638;49.080;11.896;2022-07-24T23:47:31;14.23;;;8.85;;
33266;SDS011;19638;49.080;11.896;2022-07-24T23:51:34;12.20;;;8.52;;
33266;SDS011;19638;49.080;11.896;2022-07-24T23:55:38;10.77;;;9.25;;
33266;SDS011;19638;49.080;11.896;2022-07-24T23:59:43;12.27;;;9.35;;
